Time;durP1;ratioP1;P1;durP2;ratioP2;P2;SDS_P1;SDS_P2;PMS_P1;PMS_P2;Temp;Humidity;BMP_temperature;BMP_pressure;BME280_temperature;BME280_humidity;BME280_pressure;Samples;Min_cycle;Max_cycle;Signal;HPM_P1;HPM_P2
2022/08/26 00:01:40;;;;;;;29.57;13.67;;;19.20;99.90;;;;;;5009622;28;20057;-57
2022/08/26 00:04:06;;;;;;;32.90;12.73;;;19.10;99.90;;;;;;5009857;28;20061;-57
2022/08/26 00:06:32;;;;;;;16.83;11.23;;;19.20;99.90;;;;;;5009695;28;20026;-57
2022/08/26 00:08:58;;;;;;;31.20;13.52;;;19.20;99.90;;;;;;5009772;28;20022;-57
2022/08/26 00:11:24;;;;;;;33.58;12.85;;;19.20;99.90;;;;;;5009722;28;20186;-57
2022/08/26 00:13:49;;;;;;;28.27;13.20;;;19.20;99.90;;;;;;5009627;28;20137;-57
2022/08/26 00:16:15;;;;;;;23.23;10.77;;;19.20;99.90;;;;;;5009876;28;20030;-57
2022/08/26 00:18:40;;;;;;;26.58;11.30;;;19.20;99.90;;;;;;5009602;28;20038;-57
2022/08/26 00:21:07;;;;;;;23.40;10.75;;;19.20;99.90;;;;;;5009047;28;20026;-57
2022/08/26 00:23:34;;;;;;;20.98;10.75;;;19.30;99.90;;;;;;5009063;28;20026;-57
2022/08/26 00:26:00;;;;;;;23.73;11.20;;;19.30;99.90;;;;;;5009211;28;20069;-57
2022/08/26 00:28:26;;;;;;;34.60;12.05;;;19.30;99.90;;;;;;5006154;28;20435;-57
2022/08/26 00:30:51;;;;;;;25.90;12.18;;;19.30;99.90;;;;;;5008682;28;20453;-56
2022/08/26 00:33:18;;;;;;;26.13;12.07;;;19.20;99.90;;;;;;5008425;28;20044;-57
2022/08/26 00:35:46;;;;;;;30.20;13.50;;;19.20;99.90;;;;;;5012529;28;20029;-57
2022/08/26 00:38:12;;;;;;;27.30;12.02;;;19.30;99.90;;;;;;5012641;28;20041;-57
2022/08/26 00:40:44;;;;;;;22.65;12.48;;;19.30;99.90;;;;;;5012439;28;20519;-57
2022/08/26 00:43:11;;;;;;;31.60;11.88;;;19.30;99.90;;;;;;5012934;28;20565;-57
2022/08/26 00:45:56;;;;;;;27.77;12.83;;;19.30;99.90;;;;;;5013056;28;20034;-57
2022/08/26 00:48:25;;;;;;;22.30;12.63;;;19.30;99.90;;;;;;4995238;28;20442;-57
2022/08/26 00:50:57;;;;;;;32.08;11.60;;;19.20;99.90;;;;;;5012893;28;20056;-57
2022/08/26 00:53:28;;;;;;;37.78;11.68;;;19.10;99.90;;;;;;5012969;28;20050;-57
2022/08/26 00:56:06;;;;;;;24.42;11.73;;;19.10;99.90;;;;;;5013116;28;20018;-57
2022/08/26 00:58:34;;;;;;;26.98;10.77;;;19.00;99.90;;;;;;5013009;28;20049;-57
2022/08/26 01:01:00;;;;;;;23.63;10.63;;;19.00;99.90;;;;;;5012689;28;20176;-57
2022/08/26 01:03:27;;;;;;;18.75;8.98;;;18.90;99.90;;;;;;5012654;28;20111;-57
2022/08/26 01:05:57;;;;;;;22.77;9.80;;;18.90;99.90;;;;;;5012598;28;20030;-57
2022/08/26 01:08:23;;;;;;;30.88;11.70;;;18.80;99.90;;;;;;5012777;28;20026;-58
2022/08/26 01:10:51;;;;;;;21.90;10.18;;;18.70;99.90;;;;;;5012952;28;20022;-57
2022/08/26 01:13:17;;;;;;;;;;;18.80;99.90;;;;;;5012959;28;20157;-57
2022/08/26 01:15:46;;;;;;;26.60;12.13;;;18.70;99.90;;;;;;5012466;28;19999;-58
2022/08/26 01:18:13;;;;;;;32.05;12.10;;;18.70;99.90;;;;;;5012566;28;20044;-59
2022/08/26 01:20:58;;;;;;;;;;;18.80;99.90;;;;;;5012834;28;20073;-57
2022/08/26 01:23:32;;;;;;;21.05;10.32;;;18.70;99.90;;;;;;5012293;28;19913;-57
2022/08/26 01:26:03;;;;;;;27.15;13.18;;;18.70;99.90;;;;;;5012314;28;20034;-57
2022/08/26 01:28:31;;;;;;;24.15;11.60;;;18.60;99.90;;;;;;5012305;28;20037;-57
2022/08/26 01:31:00;;;;;;;24.42;12.77;;;18.70;99.90;;;;;;5011956;28;20025;-57
2022/08/26 01:33:33;;;;;;;28.35;14.13;;;18.60;99.90;;;;;;5012150;28;20022;-57
2022/08/26 01:35:59;;;;;;;27.20;13.25;;;18.60;99.90;;;;;;5012015;28;20108;-57
2022/08/26 01:38:26;;;;;;;37.03;13.07;;;18.60;99.90;;;;;;5012193;28;20030;-57
2022/08/26 01:40:55;;;;;;;30.92;13.50;;;18.60;99.90;;;;;;5011941;28;20040;-57
2022/08/26 01:43:23;;;;;;;25.90;12.60;;;18.60;99.90;;;;;;5011945;28;20176;-57
2022/08/26 01:45:53;;;;;;;24.05;12.95;;;18.60;99.90;;;;;;5011557;28;20022;-57
2022/08/26 01:48:23;;;;;;;37.35;13.82;;;18.60;99.90;;;;;;5011808;28;20489;-56
2022/08/26 01:50:50;;;;;;;30.63;13.63;;;18.70;99.90;;;;;;5011776;28;20037;-57
2022/08/26 01:53:18;;;;;;;26.00;12.80;;;18.70;99.90;;;;;;5011757;28;20030;-57
2022/08/26 01:55:49;;;;;;;23.02;12.65;;;18.70;99.90;;;;;;5011694;28;20040;-57
2022/08/26 01:58:23;;;;;;;22.98;13.45;;;18.70;99.90;;;;;;5011649;28;20116;-57
2022/08/26 02:00:50;;;;;;;26.60;13.05;;;18.70;99.90;;;;;;5011348;28;20359;-57
2022/08/26 02:03:17;;;;;;;22.47;12.43;;;18.70;99.90;;;;;;5011597;28;20148;-57
2022/08/26 02:05:51;;;;;;;22.92;11.88;;;18.60;99.90;;;;;;5011537;28;20271;-57
2022/08/26 02:08:18;;;;;;;24.42;12.32;;;18.50;99.90;;;;;;5011403;28;20065;-57
2022/08/26 02:10:44;;;;;;;24.15;13.30;;;18.60;99.90;;;;;;4994099;28;20048;-57
2022/08/26 02:13:10;;;;;;;26.50;12.50;;;18.50;99.90;;;;;;5011374;28;20477;-58
2022/08/26 02:15:39;;;;;;;26.27;15.17;;;18.50;99.90;;;;;;5011264;28;20026;-57
2022/08/26 02:18:04;;;;;;;24.05;11.80;;;18.30;99.90;;;;;;5011334;28;20029;-58
2022/08/26 02:20:30;;;;;;;27.27;12.20;;;18.30;99.90;;;;;;5011366;28;20022;-57
2022/08/26 02:22:56;;;;;;;21.65;11.98;;;18.20;99.90;;;;;;5010997;28;20034;-57
2022/08/26 02:25:26;;;;;;;25.10;12.00;;;18.10;99.90;;;;;;5011218;28;20044;-57
2022/08/26 02:27:52;;;;;;;28.80;13.43;;;18.00;99.90;;;;;;5010891;28;20026;-57
2022/08/26 02:30:22;;;;;;;22.42;10.73;;;18.00;99.90;;;;;;5011027;28;20076;-57
2022/08/26 02:32:48;;;;;;;28.75;12.27;;;18.00;99.90;;;;;;5010978;28;20030;-56
2022/08/26 02:35:15;;;;;;;30.43;11.13;;;17.90;99.90;;;;;;5011038;28;20540;-57
2022/08/26 02:37:41;;;;;;;33.15;10.90;;;18.00;99.90;;;;;;5010910;28;20174;-57
2022/08/26 02:40:08;;;;;;;20.02;10.52;;;18.00;99.90;;;;;;5011071;28;20022;-57
2022/08/26 02:42:34;;;;;;;;;;;17.90;99.90;;;;;;5011484;28;20022;-57
2022/08/26 02:45:00;;;;;;;23.35;10.20;;;18.00;99.90;;;;;;5010599;28;19917;-57
2022/08/26 02:47:26;;;;;;;35.58;10.70;;;18.00;99.90;;;;;;5010641;28;20030;-57
2022/08/26 02:49:52;;;;;;;28.70;12.10;;;18.00;99.90;;;;;;5005805;28;20041;-57
2022/08/26 02:52:21;;;;;;;26.10;11.43;;;18.00;99.90;;;;;;4989823;28;20105;-57
2022/08/26 02:54:46;;;;;;;29.10;11.35;;;18.00;99.90;;;;;;4991050;28;20035;-57
2022/08/26 02:57:12;;;;;;;27.70;10.55;;;18.10;99.90;;;;;;4990201;28;20177;-57
2022/08/26 02:59:38;;;;;;;27.42;10.90;;;18.20;99.90;;;;;;4990802;28;20031;-57
2022/08/26 03:02:06;;;;;;;25.15;10.55;;;18.10;99.90;;;;;;4990799;28;20125;-57
2022/08/26 03:04:32;;;;;;;21.70;10.50;;;18.10;99.90;;;;;;4990507;28;20041;-57
2022/08/26 03:06:58;;;;;;;24.88;10.80;;;18.10;99.90;;;;;;4990686;28;20038;-57
2022/08/26 03:09:23;;;;;;;22.92;10.75;;;18.00;99.90;;;;;;4990529;28;20061;-58
2022/08/26 03:11:49;;;;;;;23.63;10.63;;;18.10;99.90;;;;;;4990770;28;20069;-57
2022/08/26 03:14:15;;;;;;;26.38;10.80;;;18.10;99.90;;;;;;4990673;28;20030;-57
2022/08/26 03:16:41;;;;;;;22.52;9.98;;;18.10;99.90;;;;;;4990657;28;20109;-57
2022/08/26 03:19:08;;;;;;;26.98;11.10;;;18.10;99.90;;;;;;4990564;28;20038;-57
2022/08/26 03:21:35;;;;;;;22.13;9.75;;;18.10;99.90;;;;;;4990655;28;20022;-57
2022/08/26 03:24:01;;;;;;;;;;;18.10;99.90;;;;;;4990935;28;20049;-57
2022/08/26 03:26:27;;;;;;;21.65;9.15;;;18.10;99.90;;;;;;4990609;28;19909;-61
2022/08/26 03:31:38;;;;;;;17.92;9.10;;;18.00;99.90;;;;;;4990682;28;20048;-56
2022/08/26 03:34:04;;;;;;;19.58;8.90;;;17.90;99.90;;;;;;4990428;28;20034;-56
2022/08/26 03:36:30;;;;;;;21.75;8.57;;;17.90;99.90;;;;;;4990612;28;20041;-57
2022/08/26 03:38:56;;;;;;;21.33;9.10;;;17.90;99.90;;;;;;4990275;28;20033;-56
2022/08/26 03:41:22;;;;;;;20.40;8.18;;;17.90;99.90;;;;;;4990426;28;20023;-57
2022/08/26 03:43:49;;;;;;;19.85;8.45;;;17.80;99.90;;;;;;4990443;28;20069;-57
2022/08/26 03:46:16;;;;;;;22.63;9.82;;;17.70;99.90;;;;;;4990155;28;20061;-56
2022/08/26 03:48:42;;;;;;;25.08;9.95;;;17.70;99.90;;;;;;4990508;28;20034;-56
2022/08/26 03:51:14;;;;;;;21.80;10.73;;;17.60;99.90;;;;;;4990147;28;20481;-56
2022/08/26 03:53:41;;;;;;;24.15;10.23;;;17.60;99.90;;;;;;4990161;28;20046;-57
2022/08/26 03:56:07;;;;;;;23.57;10.17;;;17.60;99.90;;;;;;4990170;28;20149;-56
2022/08/26 03:58:33;;;;;;;19.30;9.13;;;17.60;99.90;;;;;;4990432;28;20277;-56
2022/08/26 04:00:59;;;;;;;26.77;11.23;;;17.60;99.90;;;;;;4989877;28;20050;-56
2022/08/26 04:06:11;;;;;;;24.65;10.35;;;17.60;99.90;;;;;;5008555;28;20547;-57
2022/08/26 04:08:37;;;;;;;19.00;9.82;;;17.60;99.90;;;;;;5010182;28;20029;-58
2022/08/26 04:11:04;;;;;;;20.10;9.35;;;17.60;99.90;;;;;;5012511;28;20041;-58
2022/08/26 04:13:30;;;;;;;24.77;10.43;;;17.60;99.90;;;;;;5012317;28;20485;-58
2022/08/26 04:15:56;;;;;;;22.17;9.73;;;17.60;99.90;;;;;;5012281;28;20091;-57
2022/08/26 04:18:21;;;;;;;17.27;9.40;;;17.50;99.90;;;;;;5012268;28;20049;-58
2022/08/26 04:20:49;;;;;;;20.35;9.10;;;17.60;99.90;;;;;;5012239;28;20064;-58
2022/08/26 04:23:15;;;;;;;18.70;9.27;;;17.60;99.90;;;;;;5009578;28;20076;-57
2022/08/26 04:25:42;;;;;;;17.70;8.50;;;17.60;99.90;;;;;;5012371;28;20485;-57
2022/08/26 04:28:08;;;;;;;21.23;8.40;;;17.70;99.90;;;;;;5012003;28;20038;-58
2022/08/26 04:30:36;;;;;;;17.90;8.65;;;17.70;99.90;;;;;;5009537;28;20724;-57
2022/08/26 04:33:03;;;;;;;23.45;8.52;;;17.60;99.90;;;;;;5012197;28;20107;-57
2022/08/26 04:35:30;;;;;;;19.10;8.85;;;17.60;99.90;;;;;;5012391;28;20038;-57
2022/08/26 04:37:56;;;;;;;23.27;9.43;;;17.60;99.90;;;;;;5012084;28;20053;-57
2022/08/26 04:40:22;;;;;;;17.05;9.88;;;17.60;99.90;;;;;;5011826;28;20378;-58
2022/08/26 04:42:49;;;;;;;17.83;9.90;;;17.60;99.90;;;;;;5011999;28;20022;-57
2022/08/26 04:45:14;;;;;;;20.95;10.07;;;17.60;99.90;;;;;;5009166;28;20048;-58
2022/08/26 04:47:40;;;;;;;21.90;9.93;;;17.60;99.90;;;;;;5011818;28;20022;-57
2022/08/26 04:50:07;;;;;;;21.25;10.38;;;17.70;99.90;;;;;;5011775;28;20053;-57
2022/08/26 04:52:34;;;;;;;15.98;9.68;;;17.70;99.90;;;;;;5011702;28;20044;-57
2022/08/26 04:55:00;;;;;;;22.38;9.68;;;17.80;99.90;;;;;;5011593;28;20041;-57
2022/08/26 04:57:25;;;;;;;22.88;9.95;;;17.80;99.90;;;;;;5011815;28;20101;-57
2022/08/26 04:59:51;;;;;;;24.42;10.15;;;17.90;99.90;;;;;;5011649;28;20520;-57
2022/08/26 05:02:18;;;;;;;17.02;9.52;;;17.90;99.90;;;;;;5011568;28;20026;-58
2022/08/26 05:04:44;;;;;;;25.90;9.43;;;17.90;99.90;;;;;;4994195;28;20037;-57
2022/08/26 05:07:10;;;;;;;20.98;9.80;;;18.10;99.90;;;;;;5011741;28;20153;-57
2022/08/26 05:09:39;;;;;;;21.08;9.60;;;18.10;99.90;;;;;;5011149;28;20571;-57
2022/08/26 05:12:05;;;;;;;25.52;10.48;;;18.20;99.90;;;;;;5011523;28;20025;-56
2022/08/26 05:14:30;;;;;;;18.95;10.13;;;18.20;99.90;;;;;;5011171;28;20117;-57
2022/08/26 05:16:56;;;;;;;22.48;10.88;;;18.20;99.90;;;;;;5011149;28;20051;-57
2022/08/26 05:19:22;;;;;;;22.88;9.85;;;18.20;99.90;;;;;;5010804;28;20033;-57
2022/08/26 05:21:48;;;;;;;33.42;10.82;;;18.30;99.90;;;;;;5010974;28;20030;-56
2022/08/26 05:24:15;;;;;;;18.08;9.07;;;18.30;99.90;;;;;;4992421;28;20042;-56
2022/08/26 05:26:41;;;;;;;23.80;10.10;;;18.40;99.90;;;;;;5004906;28;20048;-56
2022/08/26 05:29:07;;;;;;;21.33;10.02;;;18.40;99.90;;;;;;5011013;28;20389;-56
2022/08/26 05:31:34;;;;;;;23.15;9.88;;;18.50;99.90;;;;;;5011056;28;20461;-57
2022/08/26 05:34:03;;;;;;;21.05;10.02;;;18.60;99.90;;;;;;5011317;28;20116;-57
2022/08/26 05:36:30;;;;;;;25.33;10.73;;;18.60;99.90;;;;;;5012105;28;20041;-56
2022/08/26 05:38:56;;;;;;;20.35;10.90;;;18.70;99.90;;;;;;5011745;28;20072;-56
2022/08/26 05:41:27;;;;;;;32.08;11.10;;;18.80;99.90;;;;;;4994576;28;20021;-56
2022/08/26 05:43:57;;;;;;;21.65;10.45;;;18.80;99.90;;;;;;5011968;28;20042;-55
2022/08/26 05:46:25;;;;;;;20.80;9.98;;;18.90;99.90;;;;;;5012188;28;20045;-55
2022/08/26 05:48:51;;;;;;;21.20;10.32;;;18.90;99.90;;;;;;5011957;28;20032;-55
2022/08/26 05:51:16;;;;;;;21.67;11.27;;;19.00;99.90;;;;;;5011809;28;20465;-55
2022/08/26 05:53:43;;;;;;;27.98;11.25;;;19.10;99.90;;;;;;5012038;28;20029;-55
2022/08/26 05:56:10;;;;;;;26.10;10.63;;;19.20;99.90;;;;;;5011505;28;20064;-55
2022/08/26 05:58:36;;;;;;;;;;;19.20;99.90;;;;;;5012034;28;20184;-55
2022/08/26 06:01:15;;;;;;;20.77;10.90;;;19.30;99.90;;;;;;5011542;28;19921;-55
2022/08/26 06:03:43;;;;;;;29.33;10.77;;;19.40;99.90;;;;;;5011406;28;20327;-56
2022/08/26 06:06:17;;;;;;;26.30;11.32;;;19.40;99.90;;;;;;5011633;28;20697;-55
2022/08/26 06:08:45;;;;;;;20.35;9.88;;;19.50;99.90;;;;;;5011687;28;20508;-55
2022/08/26 06:11:14;;;;;;;22.92;10.70;;;19.50;99.90;;;;;;5011526;28;20034;-55
2022/08/26 06:13:40;;;;;;;24.00;11.30;;;19.60;99.90;;;;;;5011413;28;20026;-55
2022/08/26 06:16:08;;;;;;;23.48;11.07;;;19.70;99.90;;;;;;5009990;28;20025;-56
2022/08/26 06:18:37;;;;;;;18.25;10.57;;;19.80;99.90;;;;;;5011288;28;20026;-55
2022/08/26 06:21:12;;;;;;;19.45;10.85;;;19.90;99.90;;;;;;5011255;28;20466;-56
2022/08/26 06:26:22;;;;;;;18.33;10.05;;;20.10;99.90;;;;;;5011459;28;20068;-55
2022/08/26 06:28:48;;;;;;;19.10;9.68;;;20.10;99.90;;;;;;5010977;28;20426;-56
2022/08/26 06:31:14;;;;;;;22.48;9.77;;;20.30;99.90;;;;;;5011149;28;20029;-55
2022/08/26 06:33:41;;;;;;;24.75;9.40;;;20.30;99.90;;;;;;5011185;28;20028;-56
2022/08/26 06:36:07;;;;;;;19.00;8.35;;;20.40;99.90;;;;;;5010987;28;20033;-55
2022/08/26 06:38:33;;;;;;;21.80;8.20;;;20.60;99.90;;;;;;5010978;28;20034;-55
2022/08/26 06:40:59;;;;;;;20.70;8.90;;;20.60;99.90;;;;;;5010719;28;20465;-55
2022/08/26 06:43:26;;;;;;;17.33;8.27;;;20.70;99.90;;;;;;5010627;28;20033;-55
2022/08/26 06:46:01;;;;;;;21.55;7.40;;;20.80;99.90;;;;;;5010738;28;20025;-55
2022/08/26 06:48:26;;;;;;;18.08;8.00;;;20.90;99.90;;;;;;5010696;28;20038;-55
2022/08/26 06:51:08;;;;;;;15.55;7.88;;;20.90;99.90;;;;;;5010812;28;20036;-55
2022/08/26 06:53:35;;;;;;;18.02;7.38;;;21.00;99.90;;;;;;5010372;28;20045;-56
2022/08/26 06:56:02;;;;;;;;;;;21.00;99.90;;;;;;5010754;28;20025;-55
2022/08/26 06:58:30;;;;;;;24.38;7.05;;;21.10;99.90;;;;;;5010440;28;19922;-55
2022/08/26 07:00:56;;;;;;;17.85;7.20;;;21.20;99.90;;;;;;5010038;28;20651;-55
2022/08/26 07:03:21;;;;;;;15.07;8.07;;;21.20;99.90;;;;;;5010043;28;20069;-56
2022/08/26 07:05:48;;;;;;;18.08;7.28;;;21.30;99.90;;;;;;5009875;28;20081;-55
2022/08/26 07:08:14;;;;;;;18.38;7.47;;;21.40;99.90;;;;;;5010123;28;20072;-56
2022/08/26 07:10:41;;;;;;;17.95;6.75;;;21.40;99.90;;;;;;5009836;28;20105;-56
2022/08/26 07:13:07;;;;;;;17.40;7.50;;;21.50;99.90;;;;;;5009357;28;20092;-56
2022/08/26 07:15:34;;;;;;;18.15;6.57;;;21.50;99.90;;;;;;5008781;28;20535;-56
2022/08/26 07:18:00;;;;;;;;;;;21.50;99.90;;;;;;5008869;28;20466;-57
2022/08/26 07:20:26;;;;;;;14.05;6.47;;;21.70;99.90;;;;;;5008581;28;19909;-56
2022/08/26 07:22:52;;;;;;;20.10;6.82;;;21.70;99.90;;;;;;5007842;28;20026;-56
2022/08/26 07:25:18;;;;;;;16.90;6.50;;;21.70;99.90;;;;;;5009190;28;20037;-56
2022/08/26 07:27:43;;;;;;;16.15;6.75;;;21.80;99.90;;;;;;5009145;28;20379;-56
2022/08/26 07:30:09;;;;;;;17.48;7.20;;;21.90;99.90;;;;;;5007982;28;20474;-56
2022/08/26 07:32:36;;;;;;;13.65;6.22;;;22.00;99.90;;;;;;5008293;28;20042;-55
2022/08/26 07:35:03;;;;;;;15.40;7.38;;;22.00;99.90;;;;;;5009846;28;20030;-55
2022/08/26 07:37:28;;;;;;;17.90;7.07;;;22.10;99.90;;;;;;5008753;28;20045;-55
2022/08/26 07:39:54;;;;;;;19.67;7.43;;;22.20;99.90;;;;;;5009965;28;20022;-55
2022/08/26 07:42:20;;;;;;;18.80;7.57;;;22.40;99.90;;;;;;5009550;28;20080;-55
2022/08/26 07:44:46;;;;;;;14.30;6.80;;;22.40;99.90;;;;;;5006957;28;20081;-55
2022/08/26 07:47:12;;;;;;;15.20;6.75;;;22.50;99.90;;;;;;5008436;28;20727;-56
2022/08/26 07:49:38;;;;;;;19.48;7.75;;;22.60;99.90;;;;;;5009864;28;20032;-55
2022/08/26 07:52:04;;;;;;;12.65;6.55;;;22.70;99.90;;;;;;5010176;28;20018;-56
2022/08/26 07:54:30;;;;;;;16.33;6.33;;;22.80;99.90;;;;;;5010320;28;20037;-56
2022/08/26 07:56:56;;;;;;;17.08;7.05;;;22.80;99.90;;;;;;5009063;28;20896;-55
2022/08/26 07:59:22;;;;;;;14.98;7.35;;;22.90;99.90;;;;;;5008454;28;20030;-56
2022/08/26 08:01:48;;;;;;;14.07;6.82;;;22.90;99.90;;;;;;5008039;28;20052;-55
2022/08/26 08:04:16;;;;;;;14.10;6.35;;;23.00;99.90;;;;;;5008030;28;20120;-55
2022/08/26 08:06:42;;;;;;;23.67;7.57;;;23.20;99.90;;;;;;5006762;28;20477;-55
2022/08/26 08:09:08;;;;;;;20.13;6.90;;;23.30;99.90;;;;;;5008441;28;20425;-55
2022/08/26 08:11:33;;;;;;;19.05;7.30;;;23.30;99.90;;;;;;5022937;28;20291;-55
2022/08/26 08:14:00;;;;;;;14.05;6.05;;;23.30;99.90;;;;;;5011046;28;20034;-55
2022/08/26 08:16:27;;;;;;;17.02;7.63;;;23.30;99.90;;;;;;5009713;28;20041;-58
2022/08/26 08:18:55;;;;;;;17.30;6.93;;;23.40;99.90;;;;;;5009812;28;20083;-58
2022/08/26 08:21:22;;;;;;;19.42;6.60;;;23.50;99.90;;;;;;5010296;28;20030;-58
2022/08/26 08:23:49;;;;;;;15.45;6.70;;;23.70;99.90;;;;;;5009578;28;20045;-59
2022/08/26 08:26:14;;;;;;;79.38;12.07;;;23.80;99.90;;;;;;5009686;28;20030;-57
2022/08/26 08:28:40;;;;;;;15.27;6.07;;;24.00;99.90;;;;;;5009651;28;20036;-57
2022/08/26 08:31:06;;;;;;;13.98;5.90;;;24.20;99.90;;;;;;5008855;28;20504;-58
2022/08/26 08:33:33;;;;;;;17.65;7.00;;;24.30;99.90;;;;;;5008566;28;20058;-57
2022/08/26 08:36:00;;;;;;;18.77;7.03;;;24.50;99.90;;;;;;5009408;28;20018;-57
2022/08/26 08:38:26;;;;;;;21.20;6.93;;;24.70;99.90;;;;;;5009989;28;20026;-57
2022/08/26 08:40:52;;;;;;;14.23;6.47;;;24.70;99.90;;;;;;5009983;28;20053;-56
2022/08/26 08:43:38;;;;;;;18.05;5.38;;;24.70;99.90;;;;;;5008805;28;20477;-57
2022/08/26 08:46:11;;;;;;;14.25;5.88;;;24.90;99.90;;;;;;5007806;28;20040;-57
2022/08/26 08:48:42;;;;;;;17.23;5.72;;;25.10;99.90;;;;;;5006487;28;20048;-58
2022/08/26 08:51:40;;;;;;;16.92;6.18;;;25.30;99.90;;;;;;4990673;28;20022;-57
2022/08/26 08:54:07;;;;;;;13.23;5.80;;;25.40;99.90;;;;;;5009115;28;20100;-57
2022/08/26 08:56:49;;;;;;;15.32;6.35;;;25.70;99.90;;;;;;5011399;28;20112;-57
2022/08/26 08:59:26;;;;;;;21.48;6.70;;;25.70;99.90;;;;;;5012843;28;20111;-56
2022/08/26 09:02:21;;;;;;;12.98;5.95;;;25.70;99.90;;;;;;5011583;28;20532;-57
2022/08/26 09:05:09;;;;;;;16.15;6.03;;;25.80;99.90;;;;;;5010651;28;20061;-58
2022/08/26 09:07:49;;;;;;;11.55;6.15;;;25.90;99.90;;;;;;5011939;28;20477;-58
2022/08/26 09:10:42;;;;;;;22.58;5.72;;;26.50;99.90;;;;;;5009823;28;20044;-57
2022/08/26 09:13:12;;;;;;;16.13;5.53;;;26.70;99.90;;;;;;5011309;28;20026;-58
2022/08/26 09:15:49;;;;;;;11.32;5.72;;;26.90;99.90;;;;;;5009834;28;20826;-57
2022/08/26 09:18:29;;;;;;;15.98;5.53;;;27.20;99.90;;;;;;5009484;28;20105;-57
2022/08/26 09:20:58;;;;;;;15.68;6.00;;;27.30;99.90;;;;;;5012048;28;20153;-58
2022/08/26 09:23:25;;;;;;;17.65;5.20;;;27.50;99.90;;;;;;5009143;28;20026;-58
2022/08/26 09:25:54;;;;;;;18.00;5.90;;;28.10;99.90;;;;;;5011851;28;20034;-57
2022/08/26 09:28:22;;;;;;;19.92;6.55;;;28.10;99.90;;;;;;5011168;28;20351;-58
2022/08/26 09:31:00;;;;;;;17.23;5.22;;;28.30;99.90;;;;;;5011862;28;20057;-58
2022/08/26 09:33:29;;;;;;;17.45;4.93;;;28.50;99.90;;;;;;5011530;28;20022;-58
2022/08/26 09:36:11;;;;;;;10.50;4.22;;;28.20;99.10;;;;;;5009684;28;20022;-58
2022/08/26 09:38:37;;;;;;;14.32;4.50;;;28.60;98.10;;;;;;5009657;28;20496;-57
2022/08/26 09:41:05;;;;;;;15.90;4.97;;;29.40;99.60;;;;;;5011950;28;20038;-57
2022/08/26 09:43:31;;;;;;;19.75;4.63;;;29.30;95.40;;;;;;5011715;28;20030;-58
2022/08/26 09:46:32;;;;;;;15.20;5.45;;;28.90;95.20;;;;;;5011702;28;20112;-58
2022/08/26 09:49:20;;;;;;;11.73;4.63;;;29.00;96.10;;;;;;4931757;29;20749;-57
2022/08/26 09:51:46;;;;;;;13.38;4.28;;;29.50;93.40;;;;;;5007510;28;20042;-57
2022/08/26 09:54:25;;;;;;;12.00;4.38;;;29.80;90.30;;;;;;5010630;28;20030;-58
2022/08/26 09:56:52;;;;;;;10.57;4.35;;;29.80;92.20;;;;;;5011879;28;20030;-56
2022/08/26 09:59:44;;;;;;;;;;;29.50;92.10;;;;;;5012198;28;20095;-56
2022/08/26 10:02:48;;;;;;;18.13;4.43;;;29.80;87.20;;;;;;5009708;28;19917;-56
2022/08/26 10:05:17;;;;;;;13.57;4.95;;;29.90;89.50;;;;;;4967188;28;20050;-56
2022/08/26 10:07:49;;;;;;;13.02;4.85;;;30.30;90.30;;;;;;5010629;28;20022;-55
2022/08/26 10:10:38;;;;;;;10.70;4.00;;;31.00;80.20;;;;;;5011135;28;20038;-55
2022/08/26 10:13:07;;;;;;;13.38;5.18;;;30.40;87.90;;;;;;5011239;28;20030;-55
2022/08/26 10:15:44;;;;;;;10.38;4.05;;;30.30;89.30;;;;;;5011316;28;20030;-56
2022/08/26 10:18:23;;;;;;;14.57;4.95;;;30.30;87.00;;;;;;5011472;28;20079;-56
2022/08/26 10:21:13;;;;;;;10.93;4.70;;;30.20;86.30;;;;;;5011530;28;20080;-56
2022/08/26 10:23:48;;;;;;;18.38;4.75;;;30.30;85.30;;;;;;5011576;28;20499;-56
2022/08/26 10:26:29;;;;;;;10.82;4.05;;;31.10;86.90;;;;;;5011175;28;20490;-56
2022/08/26 10:29:00;;;;;;;63.83;42.28;;;31.40;77.80;;;;;;5011445;28;20030;-56
2022/08/26 10:31:50;;;;;;;24.05;4.72;;;31.80;78.10;;;;;;5011139;28;20014;-57
2022/08/26 10:34:17;;;;;;;10.80;3.53;;;32.20;77.90;;;;;;5011250;28;20497;-56
2022/08/26 10:36:58;;;;;;;20.33;4.75;;;32.00;80.70;;;;;;5011020;28;20509;-56
2022/08/26 10:39:35;;;;;;;13.63;3.80;;;32.50;70.80;;;;;;5011227;28;20033;-57
2022/08/26 10:42:28;;;;;;;16.83;3.87;;;32.20;75.70;;;;;;5011001;28;20026;-56
2022/08/26 10:44:58;;;;;;;13.52;4.22;;;32.20;75.90;;;;;;4994899;28;20100;-57
2022/08/26 10:47:32;;;;;;;12.57;4.32;;;32.10;75.00;;;;;;5010422;28;20651;-57
2022/08/26 10:49:58;;;;;;;11.60;4.10;;;31.90;75.10;;;;;;5010910;28;20140;-57
2022/08/26 10:52:45;;;;;;;8.77;3.20;;;32.20;77.20;;;;;;5010865;28;20461;-57
2022/08/26 10:55:51;;;;;;;11.60;4.30;;;32.60;68.30;;;;;;5010328;28;20405;-59
2022/08/26 10:58:47;;;;;;;13.10;3.85;;;32.90;68.70;;;;;;5010698;28;20034;-57
2022/08/26 11:01:41;;;;;;;13.20;4.18;;;32.60;69.20;;;;;;5010022;28;20064;-57
2022/08/26 11:04:22;;;;;;;8.02;3.70;;;32.90;72.50;;;;;;5009350;28;20025;-58
2022/08/26 11:06:48;;;;;;;11.70;3.63;;;32.90;66.40;;;;;;5009311;28;20030;-57
2022/08/26 11:09:44;;;;;;;12.73;4.10;;;33.50;64.30;;;;;;5009407;28;20037;-57
2022/08/26 11:12:36;;;;;;;12.85;3.97;;;33.70;65.10;;;;;;5004775;28;20125;-57
2022/08/26 11:15:18;;;;;;;12.93;3.53;;;34.20;66.40;;;;;;5009047;28;20073;-58
2022/08/26 11:17:43;;;;;;;8.57;2.90;;;34.50;61.30;;;;;;5009134;28;20141;-57
2022/08/26 11:20:21;;;;;;;9.00;3.33;;;34.80;60.50;;;;;;5010482;28;20114;-57
2022/08/26 11:22:51;;;;;;;13.13;3.40;;;34.20;57.50;;;;;;5010544;28;20032;-57
2022/08/26 11:25:20;;;;;;;10.93;3.03;;;34.20;57.50;;;;;;5010480;28;20049;-57
2022/08/26 11:27:49;;;;;;;6.85;3.15;;;34.30;59.20;;;;;;4992626;28;20018;-57
2022/08/26 11:30:15;;;;;;;18.95;4.32;;;33.80;58.90;;;;;;5010571;28;20030;-57
2022/08/26 11:32:40;;;;;;;8.37;2.73;;;33.80;57.50;;;;;;5009905;28;20034;-56
2022/08/26 11:35:32;;;;;;;12.50;3.20;;;33.30;57.10;;;;;;5010134;28;20465;-57
2022/08/26 11:38:03;;;;;;;8.45;3.47;;;33.20;55.90;;;;;;5009473;28;20811;-57
2022/08/26 11:40:34;;;;;;;6.90;3.25;;;33.30;56.70;;;;;;5010185;28;20026;-57
2022/08/26 11:43:23;;;;;;;13.82;3.17;;;33.50;56.20;;;;;;5010027;28;20045;-57
2022/08/26 11:46:03;;;;;;;10.55;3.28;;;33.30;59.70;;;;;;5008451;28;20068;-56
2022/08/26 11:48:35;;;;;;;20.00;3.97;;;33.10;58.30;;;;;;5009848;28;20029;-56
2022/08/26 11:51:05;;;;;;;39.65;12.65;;;33.30;57.00;;;;;;5009539;28;20117;-56
2022/08/26 11:53:35;;;;;;;9.10;3.55;;;33.20;59.20;;;;;;5009252;28;20045;-56
2022/08/26 11:56:08;;;;;;;11.75;3.00;;;33.40;56.70;;;;;;5008139;28;20033;-57
2022/08/26 11:58:39;;;;;;;7.40;2.88;;;33.10;55.70;;;;;;5006416;28;20430;-56
2022/08/26 12:01:07;;;;;;;7.65;2.83;;;33.20;55.20;;;;;;5007629;28;20057;-56
2022/08/26 12:03:39;;;;;;;10.18;3.15;;;33.10;55.80;;;;;;5009907;28;20026;-57
2022/08/26 12:06:23;;;;;;;8.65;2.78;;;33.00;55.10;;;;;;5009867;28;20033;-56
2022/08/26 12:08:50;;;;;;;8.02;3.08;;;33.20;51.00;;;;;;5009856;28;20030;-56
2022/08/26 12:11:23;;;;;;;9.57;2.67;;;33.30;55.90;;;;;;5008341;28;20456;-56
2022/08/26 12:14:05;;;;;;;8.82;2.97;;;33.50;57.10;;;;;;5009593;28;20038;-56
2022/08/26 12:16:38;;;;;;;10.00;3.38;;;33.50;56.60;;;;;;5009682;28;20048;-57
2022/08/26 12:19:25;;;;;;;15.88;4.00;;;33.40;54.20;;;;;;5009504;28;20037;-56
2022/08/26 12:21:56;;;;;;;7.13;3.05;;;33.60;53.30;;;;;;5008007;28;20472;-56
2022/08/26 12:24:21;;;;;;;9.32;3.10;;;33.50;53.90;;;;;;5008946;28;20362;-57
2022/08/26 12:26:47;;;;;;;11.17;3.03;;;33.70;52.70;;;;;;5008453;28;20022;-56
2022/08/26 12:29:24;;;;;;;9.67;2.60;;;33.70;54.40;;;;;;5009359;28;20030;-57
2022/08/26 12:31:51;;;;;;;7.88;2.92;;;33.50;54.10;;;;;;5013015;28;20018;-57
2022/08/26 12:34:18;;;;;;;9.52;2.50;;;33.70;52.90;;;;;;5012057;28;20037;-57
2022/08/26 12:36:53;;;;;;;9.90;2.33;;;33.70;51.70;;;;;;5011873;28;21255;-56
2022/08/26 12:39:24;;;;;;;10.20;2.33;;;33.70;54.10;;;;;;5012945;28;20137;-57
2022/08/26 12:41:59;;;;;;;10.57;1.90;;;33.80;52.10;;;;;;5013085;28;20382;-57
2022/08/26 12:44:31;;;;;;;11.52;2.40;;;33.80;51.60;;;;;;5013235;28;20029;-57
2022/08/26 12:47:07;;;;;;;8.90;2.50;;;34.00;52.00;;;;;;5005664;28;20026;-56
2022/08/26 12:49:34;;;;;;;7.78;2.28;;;34.60;51.50;;;;;;4996896;28;20041;-56
2022/08/26 12:51:59;;;;;;;8.85;3.00;;;34.20;50.80;;;;;;5012437;28;20030;-56
2022/08/26 12:54:57;;;;;;;26.93;3.47;;;33.90;50.30;;;;;;5012840;28;20098;-56
2022/08/26 12:57:12;;;;;;;10.68;2.72;;;34.10;52.30;;;;;;5012852;28;20508;-57
2022/08/26 12:59:38;;;;;;;9.88;2.90;;;34.40;53.60;;;;;;5012607;28;20034;-57